sensor_id;sensor_type;location;lat;lon;timestamp;temperature;humidity
29321;DHT22;16323;51.130;6.612;2023-04-01T00:01:14;17.80;76.60
29321;DHT22;16323;51.130;6.612;2023-04-01T00:03:43;17.80;76.40
29321;DHT22;16323;51.130;6.612;2023-04-01T00:06:16;17.80;76.40
29321;DHT22;16323;51.130;6.612;2023-04-01T00:08:46;17.80;76.60
29321;DHT22;16323;51.130;6.612;2023-04-01T00:11:14;17.80;76.50
29321;DHT22;16323;51.130;6.612;2023-04-01T00:13:46;17.80;76.60
29321;DHT22;16323;51.130;6.612;2023-04-01T00:16:17;17.80;76.70
29321;DHT22;16323;51.130;6.612;2023-04-01T00:18:45;17.70;76.90
29321;DHT22;16323;51.130;6.612;2023-04-01T00:21:13;17.70;77.20
29321;DHT22;16323;51.130;6.612;2023-04-01T00:23:42;17.80;77.30
29321;DHT22;16323;51.130;6.612;2023-04-01T00:26:12;17.70;77.10
29321;DHT22;16323;51.130;6.612;2023-04-01T00:28:49;17.70;77.30
29321;DHT22;16323;51.130;6.612;2023-04-01T00:31:18;17.70;77.30
29321;DHT22;16323;51.130;6.612;2023-04-01T00:33:46;17.70;77.20
29321;DHT22;16323;51.130;6.612;2023-04-01T00:36:18;17.70;77.30
29321;DHT22;16323;51.130;6.612;2023-04-01T00:38:49;17.70;77.10
29321;DHT22;16323;51.130;6.612;2023-04-01T00:41:18;17.80;77.20
29321;DHT22;16323;51.130;6.612;2023-04-01T00:43:52;17.70;77.10
29321;DHT22;16323;51.130;6.612;2023-04-01T00:46:20;17.70;77.10
29321;DHT22;16323;51.130;6.612;2023-04-01T00:48:50;17.70;77.00
29321;DHT22;16323;51.130;6.612;2023-04-01T00:51:21;17.70;77.00
29321;DHT22;16323;51.130;6.612;2023-04-01T00:53:52;17.70;76.90
29321;DHT22;16323;51.130;6.612;2023-04-01T00:56:24;17.70;76.80
29321;DHT22;16323;51.130;6.612;2023-04-01T00:59:00;17.80;77.10
29321;DHT22;16323;51.130;6.612;2023-04-01T01:01:31;17.70;77.00
29321;DHT22;16323;51.130;6.612;2023-04-01T01:04:01;17.70;77.00
29321;DHT22;16323;51.130;6.612;2023-04-01T01:06:39;17.70;77.00
29321;DHT22;16323;51.130;6.612;2023-04-01T01:09:24;17.70;77.10
29321;DHT22;16323;51.130;6.612;2023-04-01T01:12:00;17.70;77.00
29321;DHT22;16323;51.130;6.612;2023-04-01T01:14:45;17.70;77.10
29321;DHT22;16323;51.130;6.612;2023-04-01T01:17:26;17.70;77.10
29321;DHT22;16323;51.130;6.612;2023-04-01T01:26:01;17.70;76.70
29321;DHT22;16323;51.130;6.612;2023-04-01T01:28:44;17.80;76.50
29321;DHT22;16323;51.130;6.612;2023-04-01T01:31:22;17.80;76.80
29321;DHT22;16323;51.130;6.612;2023-04-01T01:34:08;17.80;76.70
29321;DHT22;16323;51.130;6.612;2023-04-01T01:36:44;17.80;76.70
29321;DHT22;16323;51.130;6.612;2023-04-01T01:39:16;17.80;76.50
29321;DHT22;16323;51.130;6.612;2023-04-01T01:41:47;17.80;76.40
29321;DHT22;16323;51.130;6.612;2023-04-01T01:44:18;17.80;76.40
29321;DHT22;16323;51.130;6.612;2023-04-01T01:46:47;17.70;76.50
29321;DHT22;16323;51.130;6.612;2023-04-01T01:49:17;17.80;76.50
29321;DHT22;16323;51.130;6.612;2023-04-01T01:51:51;17.70;76.60
29321;DHT22;16323;51.130;6.612;2023-04-01T01:54:19;17.70;76.70
29321;DHT22;16323;51.130;6.612;2023-04-01T01:56:50;17.70;76.50
29321;DHT22;16323;51.130;6.612;2023-04-01T01:59:21;17.70;76.50
29321;DHT22;16323;51.130;6.612;2023-04-01T02:01:54;17.70;76.70
29321;DHT22;16323;51.130;6.612;2023-04-01T02:04:22;17.70;76.70
29321;DHT22;16323;51.130;6.612;2023-04-01T02:06:58;17.70;76.80
29321;DHT22;16323;51.130;6.612;2023-04-01T02:09:28;17.70;76.30
29321;DHT22;16323;51.130;6.612;2023-04-01T02:11:58;17.80;76.40
29321;DHT22;16323;51.130;6.612;2023-04-01T02:14:30;17.80;76.50
29321;DHT22;16323;51.130;6.612;2023-04-01T02:17:03;17.80;76.40
29321;DHT22;16323;51.130;6.612;2023-04-01T02:19:36;17.70;76.30
29321;DHT22;16323;51.130;6.612;2023-04-01T02:22:12;17.80;76.30
29321;DHT22;16323;51.130;6.612;2023-04-01T02:24:42;17.80;76.40
29321;DHT22;16323;51.130;6.612;2023-04-01T02:27:11;17.80;76.30
29321;DHT22;16323;51.130;6.612;2023-04-01T02:29:40;17.80;76.40
29321;DHT22;16323;51.130;6.612;2023-04-01T02:32:08;17.80;76.30
29321;DHT22;16323;51.130;6.612;2023-04-01T02:34:37;17.80;76.30
29321;DHT22;16323;51.130;6.612;2023-04-01T02:37:10;17.70;76.30
29321;DHT22;16323;51.130;6.612;2023-04-01T02:39:39;17.80;76.40
29321;DHT22;16323;51.130;6.612;2023-04-01T02:42:08;17.70;76.30
29321;DHT22;16323;51.130;6.612;2023-04-01T02:44:36;17.70;76.30
29321;DHT22;16323;51.130;6.612;2023-04-01T02:47:05;17.70;76.30
29321;DHT22;16323;51.130;6.612;2023-04-01T02:49:33;17.70;76.30
29321;DHT22;16323;51.130;6.612;2023-04-01T02:52:03;17.70;76.30
29321;DHT22;16323;51.130;6.612;2023-04-01T02:54:35;17.70;76.30
29321;DHT22;16323;51.130;6.612;2023-04-01T02:57:05;17.70;76.30
29321;DHT22;16323;51.130;6.612;2023-04-01T02:59:34;17.70;76.30
29321;DHT22;16323;51.130;6.612;2023-04-01T03:02:04;17.80;76.30
29321;DHT22;16323;51.130;6.612;2023-04-01T03:04:33;17.70;76.30
29321;DHT22;16323;51.130;6.612;2023-04-01T03:07:03;17.80;76.30
29321;DHT22;16323;51.130;6.612;2023-04-01T03:09:36;17.80;76.40
29321;DHT22;16323;51.130;6.612;2023-04-01T03:12:06;17.80;76.30
29321;DHT22;16323;51.130;6.612;2023-04-01T03:14:34;17.80;76.30
29321;DHT22;16323;51.130;6.612;2023-04-01T03:17:03;17.80;76.30
29321;DHT22;16323;51.130;6.612;2023-04-01T03:19:32;17.70;76.30
29321;DHT22;16323;51.130;6.612;2023-04-01T03:22:00;17.80;77.30
29321;DHT22;16323;51.130;6.612;2023-04-01T03:24:28;17.70;76.30
29321;DHT22;16323;51.130;6.612;2023-04-01T03:26:59;17.70;76.30
29321;DHT22;16323;51.130;6.612;2023-04-01T03:29:28;17.70;76.30
29321;DHT22;16323;51.130;6.612;2023-04-01T03:31:56;17.70;76.30
29321;DHT22;16323;51.130;6.612;2023-04-01T03:34:26;17.70;76.30
29321;DHT22;16323;51.130;6.612;2023-04-01T03:36:55;17.70;76.30
29321;DHT22;16323;51.130;6.612;2023-04-01T03:39:24;17.70;76.20
29321;DHT22;16323;51.130;6.612;2023-04-01T03:41:53;17.70;76.30
29321;DHT22;16323;51.130;6.612;2023-04-01T03:44:26;17.70;76.30
29321;DHT22;16323;51.130;6.612;2023-04-01T03:46:56;17.70;76.30
29321;DHT22;16323;51.130;6.612;2023-04-01T03:49:26;17.70;76.30
29321;DHT22;16323;51.130;6.612;2023-04-01T03:51:55;17.70;76.30
29321;DHT22;16323;51.130;6.612;2023-04-01T03:54:25;17.70;76.40
29321;DHT22;16323;51.130;6.612;2023-04-01T03:56:54;17.80;76.40
29321;DHT22;16323;51.130;6.612;2023-04-01T03:59:26;17.70;76.30
29321;DHT22;16323;51.130;6.612;2023-04-01T04:01:55;17.70;76.30
29321;DHT22;16323;51.130;6.612;2023-04-01T04:04:25;17.70;76.30
29321;DHT22;16323;51.130;6.612;2023-04-01T04:06:54;17.70;76.30
29321;DHT22;16323;51.130;6.612;2023-04-01T04:09:21;17.70;76.30
29321;DHT22;16323;51.130;6.612;2023-04-01T04:11:49;17.70;76.30
29321;DHT22;16323;51.130;6.612;2023-04-01T04:14:17;17.70;76.30
29321;DHT22;16323;51.130;6.612;2023-04-01T04:16:50;17.70;76.30
29321;DHT22;16323;51.130;6.612;2023-04-01T04:19:20;17.70;76.30
29321;DHT22;16323;51.130;6.612;2023-04-01T04:21:47;17.70;76.30
29321;DHT22;16323;51.130;6.612;2023-04-01T04:24:17;17.70;76.30
29321;DHT22;16323;51.130;6.612;2023-04-01T04:26:46;17.70;76.30
29321;DHT22;16323;51.130;6.612;2023-04-01T04:29:15;17.70;76.30
29321;DHT22;16323;51.130;6.612;2023-04-01T04:31:44;17.70;76.30
29321;DHT22;16323;51.130;6.612;2023-04-01T04:34:14;17.70;76.30
29321;DHT22;16323;51.130;6.612;2023-04-01T04:36:44;17.70;76.40
29321;DHT22;16323;51.130;6.612;2023-04-01T04:39:14;17.70;76.30
29321;DHT22;16323;51.130;6.612;2023-04-01T04:41:43;17.80;76.40
29321;DHT22;16323;51.130;6.612;2023-04-01T04:44:13;17.70;76.30
29321;DHT22;16323;51.130;6.612;2023-04-01T04:46:44;17.80;76.30
29321;DHT22;16323;51.130;6.612;2023-04-01T04:49:15;17.70;76.30
29321;DHT22;16323;51.130;6.612;2023-04-01T04:51:45;17.70;76.30
29321;DHT22;16323;51.130;6.612;2023-04-01T04:54:14;17.70;76.30
29321;DHT22;16323;51.130;6.612;2023-04-01T04:56:43;17.70;76.30
29321;DHT22;16323;51.130;6.612;2023-04-01T04:59:12;17.70;76.20
29321;DHT22;16323;51.130;6.612;2023-04-01T05:01:40;17.70;76.20
29321;DHT22;16323;51.130;6.612;2023-04-01T05:04:08;17.80;76.30
29321;DHT22;16323;51.130;6.612;2023-04-01T05:06:42;17.70;76.30
29321;DHT22;16323;51.130;6.612;2023-04-01T05:09:10;17.70;76.30
29321;DHT22;16323;51.130;6.612;2023-04-01T05:11:38;17.70;76.20
29321;DHT22;16323;51.130;6.612;2023-04-01T05:14:13;17.70;77.30
29321;DHT22;16323;51.130;6.612;2023-04-01T05:16:42;17.70;76.30
29321;DHT22;16323;51.130;6.612;2023-04-01T05:19:11;17.70;76.30
29321;DHT22;16323;51.130;6.612;2023-04-01T05:21:43;17.70;76.30
29321;DHT22;16323;51.130;6.612;2023-04-01T05:24:11;17.70;76.20
29321;DHT22;16323;51.130;6.612;2023-04-01T05:26:39;17.80;76.30
29321;DHT22;16323;51.130;6.612;2023-04-01T05:29:07;17.80;76.30
29321;DHT22;16323;51.130;6.612;2023-04-01T05:31:36;17.80;76.30
29321;DHT22;16323;51.130;6.612;2023-04-01T05:34:05;17.70;76.30
29321;DHT22;16323;51.130;6.612;2023-04-01T05:36:35;17.70;76.30
29321;DHT22;16323;51.130;6.612;2023-04-01T05:39:06;17.80;76.30
29321;DHT22;16323;51.130;6.612;2023-04-01T05:41:36;17.80;76.30
29321;DHT22;16323;51.130;6.612;2023-04-01T05:44:06;17.80;76.40
29321;DHT22;16323;51.130;6.612;2023-04-01T05:46:35;17.70;76.30
29321;DHT22;16323;51.130;6.612;2023-04-01T05:49:04;17.70;76.20
29321;DHT22;16323;51.130;6.612;2023-04-01T05:51:33;17.70;76.10
29321;DHT22;16323;51.130;6.612;2023-04-01T05:54:01;17.70;76.20
29321;DHT22;16323;51.130;6.612;2023-04-01T05:56:31;17.70;76.00
29321;DHT22;16323;51.130;6.612;2023-04-01T05:59:01;17.70;76.30
29321;DHT22;16323;51.130;6.612;2023-04-01T06:01:30;17.70;76.20
29321;DHT22;16323;51.130;6.612;2023-04-01T06:03:58;17.70;76.20
29321;DHT22;16323;51.130;6.612;2023-04-01T06:06:28;17.70;76.30
29321;DHT22;16323;51.130;6.612;2023-04-01T06:08:58;17.70;76.20
29321;DHT22;16323;51.130;6.612;2023-04-01T06:11:37;17.80;76.40
29321;DHT22;16323;51.130;6.612;2023-04-01T06:14:16;17.70;76.20
29321;DHT22;16323;51.130;6.612;2023-04-01T06:16:59;17.80;76.30
29321;DHT22;16323;51.130;6.612;2023-04-01T06:19:39;17.80;76.30
29321;DHT22;16323;51.130;6.612;2023-04-01T06:22:44;17.80;76.30
29321;DHT22;16323;51.130;6.612;2023-04-01T06:25:39;17.80;76.30
29321;DHT22;16323;51.130;6.612;2023-04-01T06:31:25;17.70;75.90
29321;DHT22;16323;51.130;6.612;2023-04-01T06:34:10;17.70;75.70
29321;DHT22;16323;51.130;6.612;2023-04-01T06:37:03;17.70;75.90
29321;DHT22;16323;51.130;6.612;2023-04-01T06:39:58;17.70;76.00
29321;DHT22;16323;51.130;6.612;2023-04-01T06:42:50;17.70;76.00
29321;DHT22;16323;51.130;6.612;2023-04-01T06:45:32;17.70;75.80
29321;DHT22;16323;51.130;6.612;2023-04-01T06:48:25;17.70;75.80
29321;DHT22;16323;51.130;6.612;2023-04-01T06:51:01;17.70;76.20
29321;DHT22;16323;51.130;6.612;2023-04-01T06:53:35;17.60;76.20
29321;DHT22;16323;51.130;6.612;2023-04-01T06:56:09;17.60;76.20
29321;DHT22;16323;51.130;6.612;2023-04-01T06:58:42;17.60;77.00
29321;DHT22;16323;51.130;6.612;2023-04-01T07:01:16;17.60;76.20
29321;DHT22;16323;51.130;6.612;2023-04-01T07:03:53;17.70;76.20
29321;DHT22;16323;51.130;6.612;2023-04-01T07:06:26;17.70;76.30
29321;DHT22;16323;51.130;6.612;2023-04-01T07:09:00;17.70;76.30
29321;DHT22;16323;51.130;6.612;2023-04-01T07:11:33;17.70;76.30
29321;DHT22;16323;51.130;6.612;2023-04-01T07:14:04;17.70;76.30
29321;DHT22;16323;51.130;6.612;2023-04-01T07:16:38;17.70;76.30
29321;DHT22;16323;51.130;6.612;2023-04-01T07:19:16;17.60;76.20
29321;DHT22;16323;51.130;6.612;2023-04-01T07:21:48;17.60;76.20
29321;DHT22;16323;51.130;6.612;2023-04-01T07:24:24;17.60;76.20
29321;DHT22;16323;51.130;6.612;2023-04-01T07:26:55;17.60;76.20
29321;DHT22;16323;51.130;6.612;2023-04-01T07:29:27;17.60;76.20
29321;DHT22;16323;51.130;6.612;2023-04-01T07:35:00;17.60;76.20
29321;DHT22;16323;51.130;6.612;2023-04-01T07:37:34;17.70;76.30
29321;DHT22;16323;51.130;6.612;2023-04-01T07:40:20;17.70;75.60
29321;DHT22;16323;51.130;6.612;2023-04-01T07:43:01;17.70;75.20
29321;DHT22;16323;51.130;6.612;2023-04-01T07:45:37;17.80;75.00
29321;DHT22;16323;51.130;6.612;2023-04-01T07:48:17;17.80;74.90
29321;DHT22;16323;51.130;6.612;2023-04-01T07:50:58;17.80;74.80
29321;DHT22;16323;51.130;6.612;2023-04-01T07:53:33;17.80;74.70
29321;DHT22;16323;51.130;6.612;2023-04-01T07:56:07;17.80;74.70
29321;DHT22;16323;51.130;6.612;2023-04-01T07:58:46;17.80;74.80
29321;DHT22;16323;51.130;6.612;2023-04-01T08:01:23;17.80;74.80
29321;DHT22;16323;51.130;6.612;2023-04-01T08:04:22;17.80;76.40
29321;DHT22;16323;51.130;6.612;2023-04-01T08:07:01;17.80;75.60
29321;DHT22;16323;51.130;6.612;2023-04-01T08:09:42;17.80;75.60
29321;DHT22;16323;51.130;6.612;2023-04-01T08:12:22;17.80;75.80
29321;DHT22;16323;51.130;6.612;2023-04-01T08:15:01;17.80;75.90
29321;DHT22;16323;51.130;6.612;2023-04-01T08:17:38;17.80;75.60
29321;DHT22;16323;51.130;6.612;2023-04-01T08:20:21;17.80;75.40
29321;DHT22;16323;51.130;6.612;2023-04-01T08:22:58;17.70;75.40
29321;DHT22;16323;51.130;6.612;2023-04-01T08:25:30;17.70;75.40
29321;DHT22;16323;51.130;6.612;2023-04-01T08:28:08;17.70;75.30
29321;DHT22;16323;51.130;6.612;2023-04-01T08:30:43;17.70;75.40
29321;DHT22;16323;51.130;6.612;2023-04-01T08:33:16;17.70;75.40
29321;DHT22;16323;51.130;6.612;2023-04-01T08:35:51;17.80;75.30
29321;DHT22;16323;51.130;6.612;2023-04-01T08:38:28;17.70;75.00
29321;DHT22;16323;51.130;6.612;2023-04-01T08:41:14;17.70;75.00
29321;DHT22;16323;51.130;6.612;2023-04-01T08:49:47;17.80;75.00
29321;DHT22;16323;51.130;6.612;2023-04-01T08:52:29;17.80;75.00
29321;DHT22;16323;51.130;6.612;2023-04-01T09:01:40;17.80;74.80
29321;DHT22;16323;51.130;6.612;2023-04-01T09:04:26;17.80;74.70
29321;DHT22;16323;51.130;6.612;2023-04-01T09:07:12;17.80;74.70
29321;DHT22;16323;51.130;6.612;2023-04-01T09:09:56;17.80;74.80
29321;DHT22;16323;51.130;6.612;2023-04-01T09:12:48;17.80;74.80
29321;DHT22;16323;51.130;6.612;2023-04-01T09:18:47;17.80;74.50
29321;DHT22;16323;51.130;6.612;2023-04-01T09:21:31;17.80;74.30
29321;DHT22;16323;51.130;6.612;2023-04-01T09:24:35;17.90;74.30
29321;DHT22;16323;51.130;6.612;2023-04-01T09:27:20;17.90;74.30
29321;DHT22;16323;51.130;6.612;2023-04-01T09:33:42;17.90;74.30
29321;DHT22;16323;51.130;6.612;2023-04-01T09:36:26;17.90;74.30
29321;DHT22;16323;51.130;6.612;2023-04-01T09:39:15;17.80;74.20
29321;DHT22;16323;51.130;6.612;2023-04-01T09:41:57;17.90;74.30
29321;DHT22;16323;51.130;6.612;2023-04-01T09:44:34;17.90;74.30
29321;DHT22;16323;51.130;6.612;2023-04-01T09:47:16;17.90;74.30
29321;DHT22;16323;51.130;6.612;2023-04-01T09:52:57;17.80;74.20
29321;DHT22;16323;51.130;6.612;2023-04-01T09:56:07;17.90;74.20
29321;DHT22;16323;51.130;6.612;2023-04-01T10:01:57;17.90;74.10
29321;DHT22;16323;51.130;6.612;2023-04-01T10:04:58;17.90;75.10
29321;DHT22;16323;51.130;6.612;2023-04-01T10:08:00;17.90;74.10
29321;DHT22;16323;51.130;6.612;2023-04-01T10:13:52;17.90;74.00
29321;DHT22;16323;51.130;6.612;2023-04-01T10:16:45;17.90;74.00
29321;DHT22;16323;51.130;6.612;2023-04-01T10:26:05;17.90;74.10
